Time;durP1;ratioP1;P1;durP2;ratioP2;P2;SDS_P1;SDS_P2;PMS_P1;PMS_P2;Temp;Humidity;BMP_temperature;BMP_pressure;BME280_temperature;BME280_humidity;BME280_pressure;Samples;Min_cycle;Max_cycle;Signal;HPM_P1;HPM_P2
2024/01/05 00:00:43;;;;;;;1999.90;999.90;;;8.80;99.90;;;;;;5037240;28;20188;-76
2024/01/05 00:03:08;;;;;;;1999.90;999.90;;;8.80;99.90;;;;;;5038750;28;20209;-75
2024/01/05 00:05:35;;;;;;;1999.90;999.90;;;8.90;99.90;;;;;;5035742;28;20247;-75
2024/01/05 00:08:01;;;;;;;1999.90;999.90;;;8.90;99.90;;;;;;5036882;28;20613;-74
2024/01/05 00:10:26;;;;;;;1999.90;999.90;;;8.90;99.90;;;;;;5035942;28;20462;-75
2024/01/05 00:12:52;;;;;;;1999.90;999.90;;;9.00;99.90;;;;;;5016895;28;20440;-75
2024/01/05 00:15:18;;;;;;;1999.90;999.90;;;8.90;99.90;;;;;;5037908;28;20181;-74
2024/01/05 00:17:44;;;;;;;1999.90;999.90;;;8.80;99.90;;;;;;5036722;28;20196;-75
2024/01/05 00:20:10;;;;;;;1999.90;999.90;;;8.80;99.90;;;;;;5037301;28;20409;-74
2024/01/05 00:22:36;;;;;;;1999.90;999.90;;;8.80;99.90;;;;;;5035610;28;20633;-75
2024/01/05 00:25:03;;;;;;;1999.90;999.90;;;8.90;99.90;;;;;;5035997;28;20515;-75
2024/01/05 00:27:29;;;;;;;1999.90;999.90;;;8.80;99.90;;;;;;5037375;28;20186;-75
2024/01/05 00:29:54;;;;;;;1999.90;999.90;;;8.80;99.90;;;;;;5035928;28;20910;-75
2024/01/05 00:32:20;;;;;;;1999.90;999.90;;;8.80;99.90;;;;;;5035912;28;20958;-75
2024/01/05 00:34:46;;;;;;;1999.90;999.90;;;8.80;99.90;;;;;;5036704;28;20181;-75
2024/01/05 00:37:12;;;;;;;1999.90;999.90;;;8.70;99.90;;;;;;5017183;28;20200;-74
2024/01/05 00:39:37;;;;;;;1999.90;999.90;;;8.70;99.90;;;;;;5036648;28;20404;-75
2024/01/05 00:42:04;;;;;;;1999.90;999.90;;;8.60;99.90;;;;;;5036286;28;20168;-75
2024/01/05 00:44:30;;;;;;;1999.90;999.90;;;8.70;99.90;;;;;;5016513;28;20208;-75
2024/01/05 00:46:55;;;;;;;1999.90;999.90;;;8.60;99.90;;;;;;5035968;28;20524;-75
2024/01/05 00:49:21;;;;;;;1999.90;999.90;;;8.70;99.90;;;;;;5036679;28;20166;-75
2024/01/05 00:51:46;;;;;;;1999.90;999.90;;;8.60;99.90;;;;;;5035345;28;20170;-74
2024/01/05 00:54:12;;;;;;;1999.90;999.90;;;8.60;99.90;;;;;;5036474;28;20265;-75
2024/01/05 00:56:38;;;;;;;1999.90;999.90;;;8.50;99.90;;;;;;5037948;28;20535;-75
2024/01/05 00:59:05;;;;;;;1999.90;999.90;;;8.60;99.90;;;;;;5037330;28;20268;-74
2024/01/05 01:01:31;;;;;;;1999.90;999.90;;;8.60;99.90;;;;;;5036171;28;20165;-74
2024/01/05 01:03:56;;;;;;;1999.90;999.90;;;8.60;99.90;;;;;;5035893;28;20458;-75
2024/01/05 01:06:22;;;;;;;1999.90;999.90;;;8.60;99.90;;;;;;5036581;28;20648;-76
2024/01/05 01:08:50;;;;;;;1999.90;999.90;;;8.60;99.90;;;;;;5034654;28;20226;-75
2024/01/05 01:11:17;;;;;;;1999.90;999.90;;;8.60;99.90;;;;;;5035039;28;20195;-74
2024/01/05 01:13:43;;;;;;;1999.90;999.90;;;8.50;99.90;;;;;;5033661;28;20412;-74
2024/01/05 01:16:10;;;;;;;1999.90;999.90;;;8.60;99.90;;;;;;5035235;28;20405;-75
2024/01/05 01:18:36;;;;;;;1999.90;999.90;;;8.50;99.90;;;;;;5034817;28;20428;-74
2024/01/05 01:21:01;;;;;;;1999.90;999.90;;;8.50;99.90;;;;;;5016655;28;20474;-74
2024/01/05 01:23:27;;;;;;;1999.90;999.90;;;8.50;99.90;;;;;;5035072;28;20993;-75
2024/01/05 01:25:52;;;;;;;1999.90;999.90;;;8.60;99.90;;;;;;5034106;28;20184;-75
2024/01/05 01:28:18;;;;;;;1999.90;999.90;;;8.50;99.90;;;;;;5033743;28;20235;-76
2024/01/05 01:30:43;;;;;;;1999.90;999.90;;;8.50;99.90;;;;;;5033878;28;20543;-74
2024/01/05 01:33:09;;;;;;;1999.90;999.90;;;8.50;99.90;;;;;;5034253;28;20180;-74
2024/01/05 01:35:36;;;;;;;1999.90;999.90;;;8.60;99.90;;;;;;5034900;28;20200;-75
2024/01/05 01:38:01;;;;;;;1999.90;999.90;;;8.60;99.90;;;;;;5034576;28;20432;-74
2024/01/05 01:40:27;;;;;;;1999.90;999.90;;;8.60;99.90;;;;;;5033765;28;20539;-75
2024/01/05 01:42:53;;;;;;;1999.90;999.90;;;8.70;99.90;;;;;;5033730;28;20261;-75
2024/01/05 01:45:19;;;;;;;1999.90;999.90;;;8.70;99.90;;;;;;5033561;28;20174;-75
2024/01/05 01:47:46;;;;;;;1999.90;999.90;;;8.70;99.90;;;;;;5033072;28;20523;-75
2024/01/05 01:50:13;;;;;;;1999.90;999.90;;;8.80;99.90;;;;;;5015854;28;20220;-75
2024/01/05 01:52:42;;;;;;;1999.90;999.90;;;8.90;99.90;;;;;;5032543;28;20478;-74
2024/01/05 01:55:12;;;;;;;1999.90;999.90;;;8.70;99.90;;;;;;5016438;28;20426;-74
2024/01/05 01:57:38;;;;;;;1999.90;999.90;;;8.70;99.90;;;;;;5032638;28;20448;-75
2024/01/05 02:00:05;;;;;;;1999.90;999.90;;;8.60;99.90;;;;;;5033791;28;20423;-75
2024/01/05 02:02:31;;;;;;;1999.90;999.90;;;8.60;99.90;;;;;;5032771;28;20404;-75
2024/01/05 02:04:58;;;;;;;1999.90;999.90;;;8.60;99.90;;;;;;5032422;28;20816;-75
2024/01/05 02:07:24;;;;;;;1999.90;999.90;;;8.50;99.90;;;;;;5032302;28;20446;-75
2024/01/05 02:09:50;;;;;;;1999.90;999.90;;;8.40;99.90;;;;;;5034283;28;20404;-75
2024/01/05 02:12:16;;;;;;;1999.90;999.90;;;8.40;99.90;;;;;;5032893;28;20283;-75
2024/01/05 02:14:41;;;;;;;1999.90;999.90;;;8.60;99.90;;;;;;5032785;28;20191;-75
2024/01/05 02:17:36;;;;;;;1999.90;999.90;;;8.40;99.90;;;;;;5034696;28;20208;-76
2024/01/05 02:20:02;;;;;;;1999.90;999.90;;;8.40;99.90;;;;;;5009162;28;20213;-75
2024/01/05 02:22:29;;;;;;;1999.90;999.90;;;8.40;99.90;;;;;;5032508;28;20424;-75
2024/01/05 02:24:57;;;;;;;1999.90;999.90;;;8.30;99.90;;;;;;5034034;28;21014;-74
2024/01/05 02:27:23;;;;;;;1999.90;999.90;;;8.30;99.90;;;;;;5033196;28;20458;-74
2024/01/05 02:29:49;;;;;;;1999.90;999.90;;;8.20;99.90;;;;;;5035221;28;20400;-75
2024/01/05 02:32:16;;;;;;;1999.90;999.90;;;8.30;99.90;;;;;;5015906;28;20414;-75
2024/01/05 02:34:42;;;;;;;1999.90;999.90;;;8.20;99.90;;;;;;5033706;28;20233;-75
2024/01/05 02:37:07;;;;;;;1999.90;999.90;;;8.20;99.90;;;;;;5032895;28;20474;-74
2024/01/05 02:39:33;;;;;;;1999.90;999.90;;;8.20;99.90;;;;;;5015855;28;20177;-75
2024/01/05 02:41:59;;;;;;;1999.90;999.90;;;8.20;99.90;;;;;;5032720;28;20524;-75
2024/01/05 02:44:24;;;;;;;1999.90;999.90;;;8.40;99.90;;;;;;5032678;28;20205;-74
2024/01/05 02:46:51;;;;;;;1999.90;999.90;;;8.20;99.90;;;;;;5032484;28;20187;-75
2024/01/05 02:49:16;;;;;;;1999.90;999.90;;;8.20;99.90;;;;;;5032143;28;20175;-75
2024/01/05 02:51:42;;;;;;;1999.90;999.90;;;8.20;99.90;;;;;;5033726;28;20403;-75
2024/01/05 02:54:08;;;;;;;1999.90;999.90;;;8.20;99.90;;;;;;5032589;28;20180;-75
2024/01/05 02:56:34;;;;;;;1999.90;999.90;;;8.00;99.90;;;;;;5033321;28;20457;-75
2024/01/05 02:59:00;;;;;;;1999.90;999.90;;;8.20;99.90;;;;;;5033597;28;20416;-74
2024/01/05 03:01:26;;;;;;;1999.90;999.90;;;8.20;99.90;;;;;;5015275;28;20191;-74
2024/01/05 03:03:52;;;;;;;1999.90;999.90;;;8.10;99.90;;;;;;5033483;28;20478;-75
2024/01/05 03:06:18;;;;;;;1999.90;999.90;;;8.60;99.90;;;;;;5032152;28;20179;-75
2024/01/05 03:08:44;;;;;;;1999.90;999.90;;;8.10;99.90;;;;;;5032966;28;20211;-74
2024/01/05 03:11:10;;;;;;;1999.90;999.90;;;8.20;99.90;;;;;;5031661;28;20430;-74
2024/01/05 03:13:36;;;;;;;1999.90;999.90;;;8.10;99.90;;;;;;5013781;28;21071;-74
2024/01/05 03:16:02;;;;;;;1999.90;999.90;;;8.20;99.90;;;;;;5032108;28;20588;-75
2024/01/05 03:18:27;;;;;;;1999.90;999.90;;;8.10;99.90;;;;;;5034038;28;20204;-75
2024/01/05 03:20:53;;;;;;;1999.90;999.90;;;8.10;99.90;;;;;;5034649;28;20768;-74
2024/01/05 03:23:19;;;;;;;1999.90;999.90;;;8.10;99.90;;;;;;5036265;28;20276;-75
2024/01/05 03:25:45;;;;;;;1999.90;999.90;;;8.10;99.90;;;;;;5037049;28;20689;-74
2024/01/05 03:28:12;;;;;;;1999.90;999.90;;;7.90;99.90;;;;;;5036461;28;20185;-74
2024/01/05 03:30:38;;;;;;;1999.90;999.90;;;8.10;99.90;;;;;;5036525;28;20404;-75
2024/01/05 03:33:04;;;;;;;1999.90;999.90;;;8.20;99.90;;;;;;5036366;28;20403;-76
2024/01/05 03:35:30;;;;;;;1999.90;999.90;;;8.20;99.90;;;;;;5036184;28;20421;-75
2024/01/05 03:37:56;;;;;;;1999.90;999.90;;;8.00;99.90;;;;;;5018119;28;20561;-75
2024/01/05 03:40:22;;;;;;;1999.90;999.90;;;8.00;99.90;;;;;;5036069;28;20546;-74
2024/01/05 03:42:47;;;;;;;1999.90;999.90;;;8.30;99.90;;;;;;5037816;28;20411;-75
2024/01/05 03:45:13;;;;;;;1999.90;999.90;;;8.10;99.90;;;;;;5017554;28;20919;-74
2024/01/05 03:47:39;;;;;;;1999.90;999.90;;;8.20;99.90;;;;;;5017486;28;20200;-75
2024/01/05 03:50:05;;;;;;;1999.90;999.90;;;8.10;99.90;;;;;;5035739;28;20173;-75
2024/01/05 03:52:31;;;;;;;1999.90;999.90;;;8.20;99.90;;;;;;5035231;28;20379;-75
2024/01/05 03:54:56;;;;;;;1999.90;999.90;;;8.20;99.90;;;;;;5036440;28;20522;-74
2024/01/05 03:57:23;;;;;;;1999.90;999.90;;;8.60;99.90;;;;;;5035313;28;20196;-74
2024/01/05 03:59:49;;;;;;;1999.90;999.90;;;8.40;99.90;;;;;;5035705;28;20168;-75
2024/01/05 04:02:15;;;;;;;1999.90;999.90;;;8.50;99.90;;;;;;5035426;28;20921;-74
2024/01/05 04:04:41;;;;;;;1999.90;999.90;;;8.60;99.90;;;;;;5035685;28;20912;-74
2024/01/05 04:07:07;;;;;;;1999.90;999.90;;;8.50;99.90;;;;;;5036385;28;20453;-75
2024/01/05 04:09:32;;;;;;;1999.90;999.90;;;8.80;99.90;;;;;;5057082;23;20232;-75
2024/01/05 04:11:58;;;;;;;1999.90;999.90;;;8.90;99.90;;;;;;5014397;28;20174;-74
2024/01/05 04:14:24;;;;;;;1999.90;999.90;;;8.90;99.90;;;;;;5014258;28;20171;-74
2024/01/05 04:16:50;;;;;;;1999.90;999.90;;;9.00;99.90;;;;;;5014521;28;20184;-74
2024/01/05 04:19:15;;;;;;;1999.90;999.90;;;8.80;99.90;;;;;;5014424;28;20430;-72
2024/01/05 04:21:42;;;;;;;1999.90;999.90;;;8.90;99.90;;;;;;5014382;28;20426;-75
2024/01/05 04:24:08;;;;;;;1999.90;999.90;;;8.90;99.90;;;;;;5014002;28;20189;-75
2024/01/05 04:26:33;;;;;;;1999.90;999.90;;;9.00;99.90;;;;;;5014294;28;20424;-75
2024/01/05 04:28:59;;;;;;;1999.90;999.90;;;9.00;99.90;;;;;;5014091;28;20965;-75
2024/01/05 04:31:25;;;;;;;1999.90;999.90;;;8.90;99.90;;;;;;5014044;28;20174;-75
2024/01/05 04:33:50;;;;;;;1999.90;999.90;;;9.20;99.90;;;;;;5013034;28;20545;-74
2024/01/05 04:36:16;;;;;;;1999.90;999.90;;;9.00;99.90;;;;;;5014141;28;20184;-73
2024/01/05 04:38:42;;;;;;;1999.90;999.90;;;8.90;99.90;;;;;;5014074;28;20268;-75
2024/01/05 04:41:08;;;;;;;1999.90;999.90;;;8.90;99.90;;;;;;5014053;28;20232;-75
2024/01/05 04:43:34;;;;;;;1999.90;999.90;;;8.80;99.90;;;;;;5013688;28;20448;-73
2024/01/05 04:46:00;;;;;;;1999.90;999.90;;;8.80;99.90;;;;;;5013988;28;20175;-72
2024/01/05 04:48:26;;;;;;;1999.90;999.90;;;8.80;99.90;;;;;;5013744;28;20716;-73
2024/01/05 04:50:52;;;;;;;1999.90;999.90;;;8.70;99.90;;;;;;5013878;28;20409;-72
2024/01/05 04:53:17;;;;;;;1999.90;999.90;;;8.80;99.90;;;;;;5013651;28;20197;-72
2024/01/05 04:55:43;;;;;;;1999.90;999.90;;;9.30;99.90;;;;;;5013689;28;20178;-72
2024/01/05 04:58:08;;;;;;;1999.90;999.90;;;8.90;99.90;;;;;;5013683;28;20248;-72
2024/01/05 05:00:34;;;;;;;1999.90;999.90;;;9.00;99.90;;;;;;5013682;28;20212;-72
2024/01/05 05:02:59;;;;;;;1999.90;999.90;;;9.00;99.90;;;;;;5013280;28;20243;-72
2024/01/05 05:05:25;;;;;;;1999.90;999.90;;;8.90;99.90;;;;;;5013560;28;20200;-72
2024/01/05 05:07:52;;;;;;;1999.90;999.90;;;9.00;99.90;;;;;;5013345;28;20202;-72
2024/01/05 05:10:17;;;;;;;1999.90;999.90;;;9.00;99.90;;;;;;5013563;28;20169;-72
2024/01/05 05:12:43;;;;;;;1999.90;999.90;;;9.00;99.90;;;;;;5013018;28;20416;-72
2024/01/05 05:15:10;;;;;;;1999.90;999.90;;;8.90;99.90;;;;;;5013462;28;20178;-73
2024/01/05 05:17:36;;;;;;;1999.90;999.90;;;8.70;99.90;;;;;;5007396;28;20321;-72
2024/01/05 05:20:03;;;;;;;1999.90;999.90;;;8.90;99.90;;;;;;5013235;28;20876;-72
2024/01/05 05:22:28;;;;;;;1999.90;999.90;;;9.00;99.90;;;;;;5013062;28;20442;-72
2024/01/05 05:24:54;;;;;;;1999.90;999.90;;;9.00;99.90;;;;;;5013039;28;20456;-72
2024/01/05 05:27:20;;;;;;;1999.90;999.90;;;9.00;99.90;;;;;;5013167;28;20162;-72
2024/01/05 05:29:47;;;;;;;1999.90;999.90;;;9.00;99.90;;;;;;5013055;28;20447;-72
2024/01/05 05:32:13;;;;;;;1999.90;999.90;;;9.10;99.90;;;;;;5012887;28;20593;-74
2024/01/05 05:34:40;;;;;;;1999.90;999.90;;;9.10;99.90;;;;;;5013141;28;20440;-72
2024/01/05 05:37:06;;;;;;;1999.90;999.90;;;9.00;99.90;;;;;;5012983;28;20904;-72
2024/01/05 05:39:32;;;;;;;1999.90;999.90;;;9.00;99.90;;;;;;5012864;28;20525;-72
2024/01/05 05:41:57;;;;;;;1999.90;999.90;;;9.10;99.90;;;;;;5012787;28;20593;-73
2024/01/05 05:44:23;;;;;;;1999.90;999.90;;;9.00;99.90;;;;;;5012530;28;20284;-72
2024/01/05 05:46:49;;;;;;;1999.90;999.90;;;9.00;99.90;;;;;;5013039;28;20189;-72
2024/01/05 05:49:14;;;;;;;1999.90;999.90;;;9.00;99.90;;;;;;5012820;28;20429;-72
2024/01/05 05:51:40;;;;;;;1999.90;999.90;;;9.10;99.90;;;;;;5012741;28;20173;-72
2024/01/05 05:54:06;;;;;;;1999.90;999.90;;;8.90;99.90;;;;;;5012405;28;20641;-73
2024/01/05 05:56:31;;;;;;;1999.90;999.90;;;8.90;99.90;;;;;;5012611;28;20185;-74
2024/01/05 05:58:57;;;;;;;1999.90;999.90;;;9.00;99.90;;;;;;5020727;28;20229;-72
2024/01/05 06:01:23;;;;;;;1999.90;999.90;;;9.00;99.90;;;;;;5026205;28;20239;-72
2024/01/05 06:03:49;;;;;;;1999.90;999.90;;;9.30;99.90;;;;;;5032206;28;20184;-72
2024/01/05 06:06:20;;;;;;;1999.90;999.90;;;9.00;99.90;;;;;;5032368;28;20418;-72
2024/01/05 06:08:46;;;;;;;1999.90;999.90;;;9.00;99.90;;;;;;5032156;28;21076;-72
2024/01/05 06:11:16;;;;;;;1999.90;999.90;;;8.90;99.40;;;;;;5032257;28;20483;-72
2024/01/05 06:13:42;;;;;;;1999.90;999.90;;;9.00;99.30;;;;;;5032319;28;20180;-72
2024/01/05 06:16:07;;;;;;;1999.90;999.90;;;9.00;99.00;;;;;;5032257;28;20483;-72
2024/01/05 06:18:34;;;;;;;1999.90;999.90;;;9.10;97.40;;;;;;5032134;28;20551;-72
2024/01/05 06:20:59;;;;;;;1999.90;999.90;;;9.10;94.50;;;;;;5032224;28;20170;-73
2024/01/05 06:23:25;;;;;;;1999.90;999.90;;;9.20;93.80;;;;;;5031820;28;20446;-72
2024/01/05 06:25:51;;;;;;;1999.90;999.90;;;9.30;92.20;;;;;;5032071;28;20862;-73
2024/01/05 06:28:16;;;;;;;1999.90;999.90;;;9.20;91.40;;;;;;5032041;28;20208;-73
2024/01/05 06:30:42;;;;;;;1999.90;999.90;;;9.20;91.60;;;;;;5032014;28;20166;-73
2024/01/05 06:33:08;;;;;;;1999.90;999.90;;;9.10;91.40;;;;;;5031904;28;20256;-72
2024/01/05 06:35:33;;;;;;;1999.90;999.90;;;9.10;91.20;;;;;;5008987;28;20175;-72
2024/01/05 06:37:59;;;;;;;1999.90;999.90;;;9.20;91.30;;;;;;5011841;28;20203;-73
2024/01/05 06:40:24;;;;;;;1999.90;999.90;;;9.20;91.50;;;;;;5012020;28;21025;-72
2024/01/05 06:42:50;;;;;;;1999.90;999.90;;;9.00;90.10;;;;;;5011685;28;20172;-73
2024/01/05 06:45:16;;;;;;;1999.90;999.90;;;9.10;91.80;;;;;;5011817;28;20244;-72
2024/01/05 06:47:41;;;;;;;1999.90;999.90;;;9.10;99.30;;;;;;5011868;28;20175;-73
2024/01/05 06:50:07;;;;;;;1999.90;999.90;;;9.10;91.20;;;;;;5011921;28;20438;-72
2024/01/05 06:52:33;;;;;;;1999.90;999.90;;;9.10;91.90;;;;;;5011674;28;20178;-72
2024/01/05 06:54:59;;;;;;;1999.90;999.90;;;8.90;92.20;;;;;;5019977;28;20782;-72
2024/01/05 06:57:25;;;;;;;1999.90;999.90;;;8.90;98.20;;;;;;5016282;28;20417;-74
2024/01/05 06:59:51;;;;;;;1999.90;999.90;;;9.10;91.10;;;;;;5017314;28;20420;-74
2024/01/05 07:02:17;;;;;;;1999.90;999.90;;;9.10;91.20;;;;;;5017230;28;20436;-74
2024/01/05 07:04:43;;;;;;;1999.90;999.90;;;;;;;;;;5017778;28;20210;-74
2024/01/05 07:07:09;;;;;;;1999.90;999.90;;;9.20;91.20;;;;;;5027650;28;20401;-74
2024/01/05 07:09:34;;;;;;;1999.90;999.90;;;9.10;92.00;;;;;;5016838;28;20463;-72
2024/01/05 07:12:00;;;;;;;1999.90;999.90;;;9.10;91.30;;;;;;5015648;28;20234;-71
2024/01/05 07:14:27;;;;;;;1999.90;999.90;;;9.20;91.70;;;;;;5015476;28;20260;-72
2024/01/05 07:16:56;;;;;;;1999.90;999.90;;;9.10;91.40;;;;;;5015654;28;20545;-72
2024/01/05 07:19:21;;;;;;;1999.90;999.90;;;9.20;91.20;;;;;;5015561;28;20460;-72
2024/01/05 07:21:47;;;;;;;1999.90;999.90;;;9.30;91.30;;;;;;5015417;28;20449;-72
2024/01/05 07:24:17;;;;;;;1999.90;999.90;;;9.20;91.90;;;;;;5015140;28;20481;-73
2024/01/05 07:26:43;;;;;;;1999.90;999.90;;;9.10;92.10;;;;;;5015475;28;20178;-71
2024/01/05 07:29:09;;;;;;;1999.90;999.90;;;9.20;92.30;;;;;;5015341;28;20433;-72
2024/01/05 07:31:34;;;;;;;1999.90;999.90;;;9.50;92.80;;;;;;5015406;28;20925;-72
2024/01/05 07:34:00;;;;;;;1999.90;999.90;;;9.20;92.40;;;;;;5015120;28;20665;-72
2024/01/05 07:36:26;;;;;;;1999.90;999.90;;;9.30;90.50;;;;;;5016833;28;20173;-74
2024/01/05 07:38:52;;;;;;;1999.90;999.90;;;9.30;90.40;;;;;;5018032;28;20447;-75
2024/01/05 07:41:18;;;;;;;1999.90;999.90;;;9.30;90.50;;;;;;5015236;28;20191;-74
2024/01/05 07:43:44;;;;;;;1999.90;999.90;;;9.30;91.70;;;;;;5016829;28;20198;-74
2024/01/05 07:46:10;;;;;;;1999.90;999.90;;;9.30;92.90;;;;;;5019967;28;20978;-74
2024/01/05 07:48:40;;;;;;;1999.90;999.90;;;9.20;92.90;;;;;;5019621;28;20791;-74
2024/01/05 07:51:06;;;;;;;1999.90;999.90;;;9.60;93.10;;;;;;5019986;28;20761;-75
2024/01/05 07:53:31;;;;;;;1999.90;999.90;;;9.20;95.70;;;;;;5018986;28;20431;-73
2024/01/05 07:56:02;;;;;;;1999.90;999.90;;;9.00;96.90;;;;;;5019230;28;20188;-75
2024/01/05 07:58:28;;;;;;;1999.90;999.90;;;9.20;99.00;;;;;;5020398;28;20213;-74
2024/01/05 08:00:54;;;;;;;1999.90;999.90;;;9.00;99.50;;;;;;5019942;28;20424;-74
2024/01/05 08:03:21;;;;;;;1999.90;999.90;;;9.00;99.20;;;;;;5022657;28;20515;-74
2024/01/05 08:05:47;;;;;;;1999.90;999.90;;;8.90;92.80;;;;;;5030222;28;20197;-75
2024/01/05 08:08:12;;;;;;;1999.90;999.90;;;8.90;90.90;;;;;;5029982;28;20901;-75
2024/01/05 08:10:38;;;;;;;1999.90;999.90;;;9.00;77.70;;;;;;5037949;28;20413;-75
2024/01/05 08:13:04;;;;;;;1999.90;999.90;;;9.10;64.50;;;;;;5031419;28;20176;-74
2024/01/05 08:15:30;;;;;;;1999.90;999.90;;;9.00;57.00;;;;;;5029475;28;20675;-75
2024/01/05 08:17:56;;;;;;;1999.90;999.90;;;9.30;56.40;;;;;;5037384;28;20224;-74
2024/01/05 08:20:22;;;;;;;1999.90;999.90;;;9.30;57.20;;;;;;5037458;28;20176;-74
2024/01/05 08:22:48;;;;;;;1999.90;999.90;;;9.30;58.90;;;;;;5038060;28;20413;-74
2024/01/05 08:25:14;;;;;;;1999.90;999.90;;;9.20;58.60;;;;;;5037731;28;20207;-75
2024/01/05 08:27:40;;;;;;;1999.90;999.90;;;9.30;56.20;;;;;;5034998;28;20625;-75
2024/01/05 08:30:10;;;;;;;1999.90;999.90;;;9.30;56.50;;;;;;5027655;28;20427;-75
2024/01/05 08:32:36;;;;;;;1999.90;999.90;;;9.30;60.60;;;;;;5034575;28;20417;-74
2024/01/05 08:35:01;;;;;;;1999.90;999.90;;;9.30;59.70;;;;;;5031172;28;20428;-75
2024/01/05 08:37:27;;;;;;;1999.90;999.90;;;9.30;55.10;;;;;;5029913;28;20228;-75
2024/01/05 08:39:52;;;;;;;1999.90;999.90;;;9.30;41.70;;;;;;5031572;28;20616;-74
2024/01/05 08:42:18;;;;;;;1999.90;999.90;;;9.30;35.60;;;;;;5033833;28;20185;-74
2024/01/05 08:44:43;;;;;;;1999.90;999.90;;;9.40;34.70;;;;;;5029134;28;20841;-74
2024/01/05 08:47:09;;;;;;;1999.90;999.90;;;9.60;34.90;;;;;;5036098;28;20225;-74
2024/01/05 08:49:35;;;;;;;1999.90;999.90;;;9.40;35.20;;;;;;5035877;28;20246;-75
2024/01/05 08:52:00;;;;;;;1999.90;999.90;;;9.50;35.70;;;;;;5023324;28;20779;-72
2024/01/05 08:54:26;;;;;;;1999.90;999.90;;;9.40;36.10;;;;;;5025186;28;20178;-72
2024/01/05 08:56:52;;;;;;;1999.90;999.90;;;9.30;37.90;;;;;;5033762;28;20742;-72
2024/01/05 08:59:19;;;;;;;1999.90;999.90;;;9.20;38.10;;;;;;5026378;28;20498;-72
2024/01/05 09:01:44;;;;;;;1999.90;999.90;;;9.10;34.70;;;;;;5013761;28;20404;-72
2024/01/05 09:04:13;;;;;;;1999.90;999.90;;;9.20;35.00;;;;;;5013446;28;20952;-72
2024/01/05 09:06:39;;;;;;;1999.90;999.90;;;9.40;33.90;;;;;;5018031;28;20271;-72
2024/01/05 09:09:05;;;;;;;1999.90;999.90;;;9.10;34.60;;;;;;5024846;28;20886;-73
2024/01/05 09:11:30;;;;;;;1999.90;999.90;;;9.10;32.60;;;;;;5033431;28;20416;-72
2024/01/05 09:13:56;;;;;;;1999.90;999.90;;;9.20;33.40;;;;;;5033056;28;20850;-73
2024/01/05 09:16:22;;;;;;;1999.90;999.90;;;9.10;33.20;;;;;;5033514;28;20177;-73
2024/01/05 09:18:48;;;;;;;1999.90;999.90;;;9.20;33.90;;;;;;5028859;28;20197;-72
2024/01/05 09:21:14;;;;;;;1999.90;999.90;;;9.30;33.60;;;;;;5020762;28;20418;-72
2024/01/05 09:23:41;;;;;;;1999.90;999.90;;;9.10;34.10;;;;;;5021318;28;20248;-72
2024/01/05 09:26:15;;;;;;;1999.90;999.90;;;9.10;36.50;;;;;;5031384;28;20178;-72
2024/01/05 09:28:41;;;;;;;1999.90;999.90;;;9.20;35.50;;;;;;5029081;28;20465;-72
2024/01/05 09:31:06;;;;;;;1999.90;999.90;;;9.40;35.70;;;;;;5024653;28;20440;-72
2024/01/05 09:33:32;;;;;;;1999.90;999.90;;;9.20;34.50;;;;;;5031844;28;20414;-72
2024/01/05 09:35:59;;;;;;;1999.90;999.90;;;9.10;33.70;;;;;;5021755;28;20919;-72
2024/01/05 09:38:25;;;;;;;1999.90;999.90;;;9.30;33.80;;;;;;5032872;28;20197;-72
2024/01/05 09:40:52;;;;;;;1999.90;999.90;;;9.20;35.30;;;;;;5032909;28;20415;-73
2024/01/05 09:43:25;;;;;;;1999.90;999.90;;;9.40;35.40;;;;;;5032469;28;20174;-72
2024/01/05 09:45:52;;;;;;;1999.90;999.90;;;9.30;35.00;;;;;;5032755;28;20413;-72
2024/01/05 09:48:22;;;;;;;1999.90;999.90;;;9.30;32.20;;;;;;5032827;28;20508;-72
2024/01/05 09:50:52;;;;;;;1999.90;999.90;;;9.20;32.30;;;;;;5032597;28;20397;-72
2024/01/05 09:53:19;;;;;;;1999.90;999.90;;;9.30;33.90;;;;;;5032434;28;20427;-72
2024/01/05 09:55:48;;;;;;;1999.90;999.90;;;9.60;30.80;;;;;;5032610;28;20432;-72
2024/01/05 09:58:15;;;;;;;1999.90;999.90;;;9.40;32.90;;;;;;5032516;28;20424;-72
2024/01/05 10:00:48;;;;;;;1999.90;999.90;;;9.50;32.70;;;;;;5032557;28;20480;-72
2024/01/05 10:03:24;;;;;;;1999.90;999.90;;;9.50;30.40;;;;;;5032133;28;20463;-72
2024/01/05 10:05:53;;;;;;;1999.90;999.90;;;9.60;31.20;;;;;;5034255;28;20484;-74
2024/01/05 10:08:22;;;;;;;1999.90;999.90;;;9.60;29.00;;;;;;5034922;28;20445;-75
2024/01/05 10:10:51;;;;;;;1999.90;999.90;;;9.60;28.70;;;;;;5029528;28;20414;-74
2024/01/05 10:13:17;;;;;;;1999.90;999.90;;;9.70;30.50;;;;;;5022150;28;20487;-75
2024/01/05 10:15:51;;;;;;;1999.90;999.90;;;9.70;28.80;;;;;;5023859;28;20437;-74
2024/01/05 10:18:17;;;;;;;1999.90;999.90;;;9.90;29.30;;;;;;5032123;28;20197;-74
2024/01/05 10:20:42;;;;;;;1999.90;999.90;;;9.80;29.30;;;;;;5031996;28;20407;-74
2024/01/05 10:23:08;;;;;;;1999.90;999.90;;;9.80;29.40;;;;;;5031773;28;20170;-74
2024/01/05 10:25:36;;;;;;;1999.90;999.90;;;9.60;28.80;;;;;;5032100;28;20281;-74
2024/01/05 10:28:18;;;;;;;1999.90;999.90;;;9.50;29.20;;;;;;5032001;28;20186;-74
2024/01/05 10:30:44;;;;;;;1999.90;999.90;;;9.50;29.80;;;;;;5031200;28;20916;-73
2024/01/05 10:33:10;;;;;;;1999.90;999.90;;;9.40;28.90;;;;;;5031100;28;20416;-74
2024/01/05 10:35:36;;;;;;;1999.90;999.90;;;9.50;28.90;;;;;;5019188;28;20248;-75
2024/01/05 10:38:08;;;;;;;1999.90;999.90;;;9.60;29.30;;;;;;5023529;28;20889;-72
2024/01/05 10:40:34;;;;;;;1999.90;999.90;;;9.50;31.50;;;;;;5031760;28;20169;-72
2024/01/05 10:43:11;;;;;;;1999.90;999.90;;;9.60;30.00;;;;;;5031518;28;20396;-72
2024/01/05 10:45:38;;;;;;;1999.90;999.90;;;9.60;27.80;;;;;;5031906;28;20535;-73
2024/01/05 10:48:08;;;;;;;1999.90;999.90;;;9.60;28.00;;;;;;5031844;28;20781;-72
2024/01/05 10:50:37;;;;;;;1999.90;999.90;;;9.70;28.10;;;;;;5031912;28;20820;-72
2024/01/05 10:53:04;;;;;;;1999.90;999.90;;;9.70;28.90;;;;;;5031538;28;20441;-72
2024/01/05 10:55:31;;;;;;;1999.90;999.90;;;9.70;28.30;;;;;;5031788;28;20408;-72
2024/01/05 10:57:57;;;;;;;1999.90;999.90;;;9.70;29.20;;;;;;5031655;28;20435;-72
2024/01/05 11:00:26;;;;;;;1999.90;999.90;;;9.70;28.30;;;;;;5031676;28;20782;-72
2024/01/05 11:03:16;;;;;;;1999.90;999.90;;;9.80;28.20;;;;;;5031437;28;20201;-72
2024/01/05 11:05:44;;;;;;;1999.90;999.90;;;9.70;28.20;;;;;;5031151;28;20432;-74
2024/01/05 11:08:22;;;;;;;1999.90;999.90;;;9.70;29.20;;;;;;5031457;28;20455;-75
2024/01/05 11:11:00;;;;;;;1999.90;999.90;;;9.90;28.40;;;;;;5019605;28;20904;-74
2024/01/05 11:13:52;;;;;;;1999.90;999.90;;;10.10;26.60;;;;;;5015723;28;20421;-74
2024/01/05 11:16:33;;;;;;;1999.90;999.90;;;10.20;26.10;;;;;;5025643;28;20448;-74
2024/01/05 11:19:39;;;;;;;1999.90;999.90;;;10.20;25.00;;;;;;5017801;28;20474;-73
2024/01/05 11:22:17;;;;;;;1999.90;999.90;;;10.30;29.50;;;;;;5016828;28;20436;-71
2024/01/05 11:24:43;;;;;;;1999.90;999.90;;;10.40;26.80;;;;;;5020220;28;20531;-74
2024/01/05 11:27:29;;;;;;;1999.90;999.90;;;10.40;25.60;;;;;;5029451;28;20429;-75
2024/01/05 11:29:56;;;;;;;1999.90;999.90;;;10.60;22.60;;;;;;5008513;28;20414;-76
2024/01/05 11:32:44;;;;;;;1999.90;999.90;;;10.90;23.40;;;;;;5011787;28;20460;-76
2024/01/05 11:35:16;;;;;;;1999.90;999.90;;;11.30;21.20;;;;;;5011436;28;20796;-72
2024/01/05 11:37:42;;;;;;;1999.90;999.90;;;11.60;33.70;;;;;;5017956;28;20433;-73
2024/01/05 11:40:25;;;;;;;1999.90;999.90;;;11.70;16.70;;;;;;5011067;28;20850;-73
2024/01/05 11:42:52;;;;;;;1999.90;999.90;;;11.90;16.30;;;;;;5021101;28;20494;-73
2024/01/05 11:45:41;;;;;;;1999.90;999.90;;;12.10;15.20;;;;;;5033750;28;20515;-73
2024/01/05 11:48:06;;;;;;;1999.90;999.90;;;12.10;14.70;;;;;;5022299;28;20794;-73
2024/01/05 11:50:37;;;;;;;1999.90;999.90;;;11.80;12.80;;;;;;5033998;28;20541;-74
2024/01/05 11:53:14;;;;;;;1999.90;999.90;;;11.30;15.10;;;;;;5026259;28;20593;-73
2024/01/05 11:55:56;;;;;;;1999.90;999.90;;;10.90;17.00;;;;;;5021073;28;21112;-73
2024/01/05 11:58:25;;;;;;;1999.90;999.90;;;10.70;18.70;;;;;;5023629;28;20950;-73
2024/01/05 12:00:53;;;;;;;1999.90;999.90;;;10.50;21.30;;;;;;5022453;28;20414;-74
2024/01/05 12:03:22;;;;;;;1999.90;999.90;;;10.60;23.00;;;;;;5032638;28;20497;-73
2024/01/05 12:05:50;;;;;;;1999.90;999.90;;;10.60;21.60;;;;;;5033663;28;20410;-74
2024/01/05 12:08:15;;;;;;;1999.90;999.90;;;10.50;24.00;;;;;;5033998;28;20531;-74